Thursday, July 24, 2014
23:07 UTC
  |  Log In   |  Register Free
Airport Search:

Enid Woodring Regional Airport
(KWDG)

Enid Woodring Regional Airport Diagram
No Airport Diagram Available

FAA data valid effective July 24, 2014 until September 18, 2014 (unless otherwise noted).

 
 
 
 
 
 
 
 
 
 
 
 
 
 

Current Aviation Weather for Enid Woodring Regional Airport (KWDG)

The most recent METAR observation for KWDG was updated at: 2250 UTC
METAR Summary (Translated METAR)
KWDG
242250Z 14008KT 10SM FEW180 35/23 A2996
KEND
(6.6 nm SW from KWDG)
242155Z 14010KT 10SM FEW045 34/25 A2998 RMK AO2A SLP139
TAF Summary (Translated TAF)
KEND
(6.6 nm SW from KWDG)
2418/2524 14012KT 9999 FEW200 FEW250 QNH2995INS BECMG 2500/2501 15009KT 9999 SKC 510102 QNH2993INS BECMG 2513/2514 21012G20KT 9999 FEW220 QNH2990INS TX38/2518Z TN22/2511Z
  Airport Weather Conditions for KWDG

 Current Weather at WDG
95° F
Partly Cloudy
Southeast winds at 8.1 mph
WDG NOAA Radar

Pressure: 29.97 in
Humidity: 50%
Wind: Southeast at 8.1 MPH (7 KT)
Dew Point: 73.4°F
Visibility: 10.00 mi


Airport Weather Forecast for KWDG

Translated METAR and TAF for KWDG
Translated METAR for KWDG (2300 UTC 24 July 2014)
found at http://aviationweather.gov/adds/metars/
 
METAR text: KWDG 242250Z 14008KT 10SM FEW180 35/23 A2996
Conditions at: KWDG (ENID/WOODRING , OK, US) observed 2250 UTC 24 July 2014
Temperature: 35.0°C (95°F)
Dewpoint: 23.0°C (73°F) [RH = 50%]
Pressure (altimeter): 29.96 inches Hg (1014.6 mb)
Winds: from the SE (140 degrees) at 9 MPH (8 knots; 4.2 m/s)
Visibility: 10 or more miles (16+ km)
Ceiling: at least 12,000 feet AGL
Clouds: few clouds at 18000 feet AGL
Weather: no significant weather observed at this time
Translated TAF for KWDG

There is no translated TAF available for this airport

Find All Airport Services Find A Hotel Find A Rental Car Find A Golf Course Find A Restaurant $100 Hamburger



FBO's on the Field
FBO Company Facility Photos Services Transportation Aviation Fuel Prices: Prices include tax
Catering Weather Repair Courtesy Rental Type 100LL JetA JetA+ MOGAS 8087
 
Enid Woodring Regional Airport

This FBO has not yet been rated
FS:Phillips66
Last Updated: Jun-25
Login to update fuel prices
SS:
Contact Enid Woodring Regional AirportMore FBO Information
 
Add another FBO Facility Photos Catering Weather Repair Courtesy Rental Type 100LL JetA JetA+ MOGAS 8087
Services Transportation Aviation Fuel Prices: Prices include tax


GlobalAir.com Airport Resource Center model-print
model-print
model-print
model-print